sensor_id;sensor_type;location;lat;lon;timestamp;pressure;altitude;pressure_sealevel;temperature
67822;BMP180;54434;50.096;20.082;2023-02-13T00:00:54;100822.80;;;1.34
67822;BMP180;54434;50.096;20.082;2023-02-13T00:03:32;100813.80;;;1.38
67822;BMP180;54434;50.096;20.082;2023-02-13T00:06:09;100814.60;;;1.40
67822;BMP180;54434;50.096;20.082;2023-02-13T00:08:46;100815.00;;;1.40
67822;BMP180;54434;50.096;20.082;2023-02-13T00:11:22;100814.60;;;1.42
67822;BMP180;54434;50.096;20.082;2023-02-13T00:14:00;100812.40;;;1.50
67822;BMP180;54434;50.096;20.082;2023-02-13T00:16:37;100807.20;;;1.50
67822;BMP180;54434;50.096;20.082;2023-02-13T00:19:13;100807.80;;;1.50
67822;BMP180;54434;50.096;20.082;2023-02-13T00:21:49;100806.00;;;1.50
67822;BMP180;54434;50.096;20.082;2023-02-13T00:24:27;100806.60;;;1.60
67822;BMP180;54434;50.096;20.082;2023-02-13T00:27:03;100807.80;;;1.60
67822;BMP180;54434;50.096;20.082;2023-02-13T00:29:41;100806.00;;;1.60
67822;BMP180;54434;50.096;20.082;2023-02-13T00:32:17;100802.80;;;1.60
67822;BMP180;54434;50.096;20.082;2023-02-13T00:34:54;100800.80;;;1.60
67822;BMP180;54434;50.096;20.082;2023-02-13T00:37:33;100810.40;;;1.60
67822;BMP180;54434;50.096;20.082;2023-02-13T00:40:13;100807.40;;;1.60
67822;BMP180;54434;50.096;20.082;2023-02-13T00:42:49;100804.00;;;1.60
67822;BMP180;54434;50.096;20.082;2023-02-13T00:45:26;100797.20;;;1.60
67822;BMP180;54434;50.096;20.082;2023-02-13T00:48:03;100792.80;;;1.60
67822;BMP180;54434;50.096;20.082;2023-02-13T00:50:39;100795.80;;;1.60
67822;BMP180;54434;50.096;20.082;2023-02-13T00:53:16;100784.60;;;1.64
67822;BMP180;54434;50.096;20.082;2023-02-13T00:55:53;100781.60;;;1.68
67822;BMP180;54434;50.096;20.082;2023-02-13T00:58:30;100772.20;;;1.70
67822;BMP180;54434;50.096;20.082;2023-02-13T01:01:07;100769.60;;;1.70
67822;BMP180;54434;50.096;20.082;2023-02-13T01:03:44;100771.00;;;1.70
67822;BMP180;54434;50.096;20.082;2023-02-13T01:06:20;100774.80;;;1.70
67822;BMP180;54434;50.096;20.082;2023-02-13T01:08:56;100770.40;;;1.70
67822;BMP180;54434;50.096;20.082;2023-02-13T01:11:33;100768.40;;;1.70
67822;BMP180;54434;50.096;20.082;2023-02-13T01:14:09;100760.40;;;1.70
67822;BMP180;54434;50.096;20.082;2023-02-13T01:16:46;100760.40;;;1.70
67822;BMP180;54434;50.096;20.082;2023-02-13T01:19:23;100761.60;;;1.72
67822;BMP180;54434;50.096;20.082;2023-02-13T01:22:00;100759.00;;;1.70
67822;BMP180;54434;50.096;20.082;2023-02-13T01:24:37;100757.80;;;1.74
67822;BMP180;54434;50.096;20.082;2023-02-13T01:27:13;100757.60;;;1.80
67822;BMP180;54434;50.096;20.082;2023-02-13T01:29:52;100755.40;;;1.80
67822;BMP180;54434;50.096;20.082;2023-02-13T01:32:28;100750.40;;;1.80
67822;BMP180;54434;50.096;20.082;2023-02-13T01:35:06;100750.00;;;1.80
67822;BMP180;54434;50.096;20.082;2023-02-13T01:37:44;100750.40;;;1.80
67822;BMP180;54434;50.096;20.082;2023-02-13T01:40:21;100751.00;;;1.80
67822;BMP180;54434;50.096;20.082;2023-02-13T01:42:57;100748.80;;;1.78
67822;BMP180;54434;50.096;20.082;2023-02-13T01:45:35;100746.00;;;1.74
67822;BMP180;54434;50.096;20.082;2023-02-13T01:48:16;100747.60;;;1.70
67822;BMP180;54434;50.096;20.082;2023-02-13T01:51:00;100743.60;;;1.70
67822;BMP180;54434;50.096;20.082;2023-02-13T01:53:44;100733.00;;;1.70
67822;BMP180;54434;50.096;20.082;2023-02-13T01:56:30;100732.80;;;1.70
67822;BMP180;54434;50.096;20.082;2023-02-13T01:59:13;100732.00;;;1.72
67822;BMP180;54434;50.096;20.082;2023-02-13T02:01:50;100726.40;;;1.72
67822;BMP180;54434;50.096;20.082;2023-02-13T02:04:33;100718.60;;;1.80
67822;BMP180;54434;50.096;20.082;2023-02-13T02:07:20;100721.40;;;1.80
67822;BMP180;54434;50.096;20.082;2023-02-13T02:10:05;100719.20;;;1.80
67822;BMP180;54434;50.096;20.082;2023-02-13T02:12:51;100714.40;;;1.80
67822;BMP180;54434;50.096;20.082;2023-02-13T02:15:28;100714.20;;;1.84
67822;BMP180;54434;50.096;20.082;2023-02-13T02:18:08;100706.80;;;1.90
67822;BMP180;54434;50.096;20.082;2023-02-13T02:21:48;100711.80;;;1.90
67822;BMP180;54434;50.096;20.082;2023-02-13T02:25:07;100703.00;;;1.90
67822;BMP180;54434;50.096;20.082;2023-02-13T02:28:27;100699.40;;;1.96
67822;BMP180;54434;50.096;20.082;2023-02-13T02:35:12;100708.20;;;2.00
67822;BMP180;54434;50.096;20.082;2023-02-13T02:38:16;100712.80;;;2.00
67822;BMP180;54434;50.096;20.082;2023-02-13T02:41:10;100711.80;;;2.10
67822;BMP180;54434;50.096;20.082;2023-02-13T02:44:34;100713.80;;;2.10
67822;BMP180;54434;50.096;20.082;2023-02-13T02:47:24;100717.40;;;2.10
67822;BMP180;54434;50.096;20.082;2023-02-13T02:50:36;100711.00;;;2.10
67822;BMP180;54434;50.096;20.082;2023-02-13T02:53:32;100714.60;;;2.10
67822;BMP180;54434;50.096;20.082;2023-02-13T02:56:21;100709.80;;;2.10
67822;BMP180;54434;50.096;20.082;2023-02-13T02:59:06;100711.20;;;2.20
67822;BMP180;54434;50.096;20.082;2023-02-13T03:02:03;100709.60;;;2.20
67822;BMP180;54434;50.096;20.082;2023-02-13T03:05:16;100703.00;;;2.20
67822;BMP180;54434;50.096;20.082;2023-02-13T03:08:12;100701.20;;;2.20
67822;BMP180;54434;50.096;20.082;2023-02-13T03:10:49;100695.80;;;2.20
67822;BMP180;54434;50.096;20.082;2023-02-13T03:13:48;100694.80;;;2.24
67822;BMP180;54434;50.096;20.082;2023-02-13T03:16:27;100689.00;;;2.20
67822;BMP180;54434;50.096;20.082;2023-02-13T03:19:36;100690.40;;;2.20
67822;BMP180;54434;50.096;20.082;2023-02-13T03:22:44;100694.40;;;2.20
67822;BMP180;54434;50.096;20.082;2023-02-13T03:25:37;100698.00;;;2.20
67822;BMP180;54434;50.096;20.082;2023-02-13T03:28:34;100700.40;;;2.20
67822;BMP180;54434;50.096;20.082;2023-02-13T03:31:41;100700.20;;;2.20
67822;BMP180;54434;50.096;20.082;2023-02-13T03:34:24;100706.80;;;2.20
67822;BMP180;54434;50.096;20.082;2023-02-13T03:37:30;100711.60;;;2.20
67822;BMP180;54434;50.096;20.082;2023-02-13T03:40:38;100714.80;;;2.24
67822;BMP180;54434;50.096;20.082;2023-02-13T03:43:51;100718.00;;;2.30
67822;BMP180;54434;50.096;20.082;2023-02-13T03:46:36;100712.80;;;2.30
67822;BMP180;54434;50.096;20.082;2023-02-13T03:49:22;100712.60;;;2.30
67822;BMP180;54434;50.096;20.082;2023-02-13T03:52:26;100717.00;;;2.30
67822;BMP180;54434;50.096;20.082;2023-02-13T03:55:11;100718.00;;;2.30
67822;BMP180;54434;50.096;20.082;2023-02-13T03:58:13;100719.40;;;2.36
67822;BMP180;54434;50.096;20.082;2023-02-13T04:01:13;100724.80;;;2.40
67822;BMP180;54434;50.096;20.082;2023-02-13T04:04:00;100723.00;;;2.40
67822;BMP180;54434;50.096;20.082;2023-02-13T04:06:47;100726.60;;;2.40
67822;BMP180;54434;50.096;20.082;2023-02-13T04:09:25;100730.20;;;2.40
67822;BMP180;54434;50.096;20.082;2023-02-13T04:12:15;100727.00;;;2.40
67822;BMP180;54434;50.096;20.082;2023-02-13T04:15:00;100724.60;;;2.50
67822;BMP180;54434;50.096;20.082;2023-02-13T04:17:44;100719.40;;;2.50
67822;BMP180;54434;50.096;20.082;2023-02-13T04:20:27;100717.60;;;2.50
67822;BMP180;54434;50.096;20.082;2023-02-13T04:23:09;100714.80;;;2.50
67822;BMP180;54434;50.096;20.082;2023-02-13T04:25:51;100712.40;;;2.50
67822;BMP180;54434;50.096;20.082;2023-02-13T04:28:29;100708.00;;;2.50
67822;BMP180;54434;50.096;20.082;2023-02-13T04:31:06;100704.00;;;2.50
67822;BMP180;54434;50.096;20.082;2023-02-13T04:33:42;100705.80;;;2.50
67822;BMP180;54434;50.096;20.082;2023-02-13T04:36:19;100706.60;;;2.50
67822;BMP180;54434;50.096;20.082;2023-02-13T04:38:55;100710.80;;;2.50
67822;BMP180;54434;50.096;20.082;2023-02-13T04:41:31;100707.20;;;2.50
67822;BMP180;54434;50.096;20.082;2023-02-13T04:44:08;100707.40;;;2.50
67822;BMP180;54434;50.096;20.082;2023-02-13T04:46:45;100708.40;;;2.50
67822;BMP180;54434;50.096;20.082;2023-02-13T04:49:21;100712.40;;;2.44
67822;BMP180;54434;50.096;20.082;2023-02-13T04:51:57;100715.80;;;2.40
67822;BMP180;54434;50.096;20.082;2023-02-13T04:54:33;100715.40;;;2.40
67822;BMP180;54434;50.096;20.082;2023-02-13T04:57:10;100719.80;;;2.40
67822;BMP180;54434;50.096;20.082;2023-02-13T04:59:46;100716.40;;;2.40
67822;BMP180;54434;50.096;20.082;2023-02-13T05:02:23;100716.20;;;2.40
67822;BMP180;54434;50.096;20.082;2023-02-13T05:04:59;100716.60;;;2.42
67822;BMP180;54434;50.096;20.082;2023-02-13T05:07:36;100717.60;;;2.40
67822;BMP180;54434;50.096;20.082;2023-02-13T05:10:15;100723.20;;;2.40
67822;BMP180;54434;50.096;20.082;2023-02-13T05:12:52;100716.20;;;2.42
67822;BMP180;54434;50.096;20.082;2023-02-13T05:15:29;100711.60;;;2.42
67822;BMP180;54434;50.096;20.082;2023-02-13T05:18:06;100708.20;;;2.46
67822;BMP180;54434;50.096;20.082;2023-02-13T05:20:42;100708.80;;;2.50
67822;BMP180;54434;50.096;20.082;2023-02-13T05:23:18;100708.40;;;2.50
67822;BMP180;54434;50.096;20.082;2023-02-13T05:25:57;100710.00;;;2.50
67822;BMP180;54434;50.096;20.082;2023-02-13T05:28:34;100709.80;;;2.50
67822;BMP180;54434;50.096;20.082;2023-02-13T05:31:28;100713.80;;;2.50
67822;BMP180;54434;50.096;20.082;2023-02-13T05:34:05;100712.80;;;2.50
67822;BMP180;54434;50.096;20.082;2023-02-13T05:36:41;100716.00;;;2.60
67822;BMP180;54434;50.096;20.082;2023-02-13T05:39:18;100714.40;;;2.60
67822;BMP180;54434;50.096;20.082;2023-02-13T05:41:54;100715.80;;;2.60
67822;BMP180;54434;50.096;20.082;2023-02-13T05:44:31;100715.40;;;2.60
67822;BMP180;54434;50.096;20.082;2023-02-13T05:47:07;100714.40;;;2.60
67822;BMP180;54434;50.096;20.082;2023-02-13T05:49:44;100717.20;;;2.60
67822;BMP180;54434;50.096;20.082;2023-02-13T05:52:21;100722.80;;;2.60
67822;BMP180;54434;50.096;20.082;2023-02-13T05:54:57;100728.80;;;2.60
67822;BMP180;54434;50.096;20.082;2023-02-13T05:57:34;100728.60;;;2.60
67822;BMP180;54434;50.096;20.082;2023-02-13T06:00:14;100730.40;;;2.60
67822;BMP180;54434;50.096;20.082;2023-02-13T06:02:50;100736.80;;;2.60
67822;BMP180;54434;50.096;20.082;2023-02-13T06:05:27;100734.00;;;2.68
67822;BMP180;54434;50.096;20.082;2023-02-13T06:08:04;100738.20;;;2.70
67822;BMP180;54434;50.096;20.082;2023-02-13T06:10:41;100740.40;;;2.70
67822;BMP180;54434;50.096;20.082;2023-02-13T06:13:19;100737.40;;;2.70
67822;BMP180;54434;50.096;20.082;2023-02-13T06:15:56;100737.20;;;2.70
67822;BMP180;54434;50.096;20.082;2023-02-13T06:18:32;100736.20;;;2.70
67822;BMP180;54434;50.096;20.082;2023-02-13T06:21:10;100735.60;;;2.70
67822;BMP180;54434;50.096;20.082;2023-02-13T06:23:46;100735.00;;;2.72
67822;BMP180;54434;50.096;20.082;2023-02-13T06:26:23;100739.80;;;2.70
67822;BMP180;54434;50.096;20.082;2023-02-13T06:28:59;100739.80;;;2.70
67822;BMP180;54434;50.096;20.082;2023-02-13T06:31:36;100739.00;;;2.70
67822;BMP180;54434;50.096;20.082;2023-02-13T06:34:12;100736.20;;;2.76
67822;BMP180;54434;50.096;20.082;2023-02-13T06:36:48;100746.00;;;2.80
67822;BMP180;54434;50.096;20.082;2023-02-13T06:39:25;100747.60;;;2.80
67822;BMP180;54434;50.096;20.082;2023-02-13T06:42:01;100750.20;;;2.80
67822;BMP180;54434;50.096;20.082;2023-02-13T06:44:37;100757.40;;;2.80
67822;BMP180;54434;50.096;20.082;2023-02-13T06:47:13;100754.00;;;2.80
67822;BMP180;54434;50.096;20.082;2023-02-13T06:49:50;100753.80;;;2.82
67822;BMP180;54434;50.096;20.082;2023-02-13T06:52:27;100753.80;;;2.90
67822;BMP180;54434;50.096;20.082;2023-02-13T06:55:05;100752.40;;;2.90
67822;BMP180;54434;50.096;20.082;2023-02-13T06:57:42;100743.80;;;2.90
67822;BMP180;54434;50.096;20.082;2023-02-13T07:00:21;100748.60;;;2.90
67822;BMP180;54434;50.096;20.082;2023-02-13T07:03:06;100747.40;;;2.90
67822;BMP180;54434;50.096;20.082;2023-02-13T07:05:45;100750.60;;;2.90
67822;BMP180;54434;50.096;20.082;2023-02-13T07:08:21;100751.40;;;2.90
67822;BMP180;54434;50.096;20.082;2023-02-13T07:10:58;100753.00;;;2.98
67822;BMP180;54434;50.096;20.082;2023-02-13T07:13:35;100764.20;;;3.00
67822;BMP180;54434;50.096;20.082;2023-02-13T07:16:11;100764.40;;;3.00
67822;BMP180;54434;50.096;20.082;2023-02-13T07:18:48;100762.80;;;3.00
67822;BMP180;54434;50.096;20.082;2023-02-13T07:21:24;100757.40;;;3.10
67822;BMP180;54434;50.096;20.082;2023-02-13T07:24:00;100759.80;;;3.10
67822;BMP180;54434;50.096;20.082;2023-02-13T07:26:37;100761.00;;;3.10
67822;BMP180;54434;50.096;20.082;2023-02-13T07:29:14;100759.20;;;3.20
67822;BMP180;54434;50.096;20.082;2023-02-13T07:31:50;100755.20;;;3.20
67822;BMP180;54434;50.096;20.082;2023-02-13T07:34:27;100746.20;;;3.30
67822;BMP180;54434;50.096;20.082;2023-02-13T07:37:03;100735.20;;;3.30
67822;BMP180;54434;50.096;20.082;2023-02-13T07:39:40;100735.60;;;3.30
67822;BMP180;54434;50.096;20.082;2023-02-13T07:42:16;100738.60;;;3.30
67822;BMP180;54434;50.096;20.082;2023-02-13T07:44:52;100741.00;;;3.30
67822;BMP180;54434;50.096;20.082;2023-02-13T07:47:29;100748.80;;;3.30
67822;BMP180;54434;50.096;20.082;2023-02-13T07:50:08;100750.80;;;3.36
67822;BMP180;54434;50.096;20.082;2023-02-13T07:52:44;100750.00;;;3.38
67822;BMP180;54434;50.096;20.082;2023-02-13T07:55:28;100741.00;;;3.34
67822;BMP180;54434;50.096;20.082;2023-02-13T07:58:05;100742.40;;;3.36
67822;BMP180;54434;50.096;20.082;2023-02-13T08:00:48;100741.80;;;3.40
67822;BMP180;54434;50.096;20.082;2023-02-13T08:03:25;100739.40;;;3.40
67822;BMP180;54434;50.096;20.082;2023-02-13T08:06:02;100735.60;;;3.50
67822;BMP180;54434;50.096;20.082;2023-02-13T08:08:39;100727.00;;;3.50
67822;BMP180;54434;50.096;20.082;2023-02-13T08:11:30;100721.20;;;3.60
67822;BMP180;54434;50.096;20.082;2023-02-13T08:14:32;100721.60;;;3.60
67822;BMP180;54434;50.096;20.082;2023-02-13T08:17:09;100725.80;;;3.70
67822;BMP180;54434;50.096;20.082;2023-02-13T08:19:46;100722.20;;;3.70
67822;BMP180;54434;50.096;20.082;2023-02-13T08:22:22;100727.20;;;3.78
67822;BMP180;54434;50.096;20.082;2023-02-13T08:24:58;100732.60;;;3.80
67822;BMP180;54434;50.096;20.082;2023-02-13T08:27:36;100734.40;;;3.88
67822;BMP180;54434;50.096;20.082;2023-02-13T08:32:52;100734.40;;;4.00
67822;BMP180;54434;50.096;20.082;2023-02-13T08:35:28;100736.80;;;4.00
67822;BMP180;54434;50.096;20.082;2023-02-13T08:38:07;100741.40;;;4.10
67822;BMP180;54434;50.096;20.082;2023-02-13T08:40:44;100743.60;;;4.20
67822;BMP180;54434;50.096;20.082;2023-02-13T08:43:20;100737.00;;;4.30
67822;BMP180;54434;50.096;20.082;2023-02-13T08:46:00;100728.00;;;4.40
67822;BMP180;54434;50.096;20.082;2023-02-13T08:48:37;100725.40;;;4.52
67822;BMP180;54434;50.096;20.082;2023-02-13T08:51:15;100732.00;;;4.78
67822;BMP180;54434;50.096;20.082;2023-02-13T08:53:52;100733.20;;;4.90
67822;BMP180;54434;50.096;20.082;2023-02-13T08:56:29;100733.40;;;5.00
67822;BMP180;54434;50.096;20.082;2023-02-13T08:59:05;100738.00;;;5.10
67822;BMP180;54434;50.096;20.082;2023-02-13T09:01:43;100735.60;;;5.04
67822;BMP180;54434;50.096;20.082;2023-02-13T09:04:20;100730.60;;;5.10
67822;BMP180;54434;50.096;20.082;2023-02-13T09:06:56;100730.00;;;5.18
67822;BMP180;54434;50.096;20.082;2023-02-13T09:09:33;100722.00;;;5.20
67822;BMP180;54434;50.096;20.082;2023-02-13T09:12:10;100725.40;;;5.30
67822;BMP180;54434;50.096;20.082;2023-02-13T09:14:47;100730.40;;;5.40
67822;BMP180;54434;50.096;20.082;2023-02-13T09:17:24;100729.40;;;5.50
67822;BMP180;54434;50.096;20.082;2023-02-13T09:20:00;100738.20;;;5.60
67822;BMP180;54434;50.096;20.082;2023-02-13T09:22:37;100731.80;;;5.70
67822;BMP180;54434;50.096;20.082;2023-02-13T09:25:13;100728.40;;;5.80
67822;BMP180;54434;50.096;20.082;2023-02-13T09:27:50;100728.60;;;5.90
67822;BMP180;54434;50.096;20.082;2023-02-13T09:30:26;100727.60;;;5.90
67822;BMP180;54434;50.096;20.082;2023-02-13T09:33:03;100729.60;;;6.00
67822;BMP180;54434;50.096;20.082;2023-02-13T09:35:45;100725.00;;;6.00
67822;BMP180;54434;50.096;20.082;2023-02-13T09:38:21;100729.00;;;6.00
67822;BMP180;54434;50.096;20.082;2023-02-13T09:41:04;100731.60;;;6.10
67822;BMP180;54434;50.096;20.082;2023-02-13T09:43:49;100732.00;;;6.10
67822;BMP180;54434;50.096;20.082;2023-02-13T09:46:31;100724.20;;;6.12
67822;BMP180;54434;50.096;20.082;2023-02-13T09:49:14;100728.40;;;6.20
67822;BMP180;54434;50.096;20.082;2023-02-13T09:51:56;100732.00;;;6.20
67822;BMP180;54434;50.096;20.082;2023-02-13T09:54:33;100732.60;;;6.26
67822;BMP180;54434;50.096;20.082;2023-02-13T09:57:22;100729.80;;;6.30
67822;BMP180;54434;50.096;20.082;2023-02-13T10:00:11;100731.80;;;6.40
67822;BMP180;54434;50.096;20.082;2023-02-13T10:03:20;100730.20;;;6.40
67822;BMP180;54434;50.096;20.082;2023-02-13T10:06:11;100730.20;;;6.50
67822;BMP180;54434;50.096;20.082;2023-02-13T10:09:09;100725.00;;;6.64
67822;BMP180;54434;50.096;20.082;2023-02-13T10:12:18;100723.60;;;6.70
67822;BMP180;54434;50.096;20.082;2023-02-13T10:15:13;100716.20;;;6.80
67822;BMP180;54434;50.096;20.082;2023-02-13T10:18:00;100709.00;;;6.90
67822;BMP180;54434;50.096;20.082;2023-02-13T10:20:44;100706.00;;;7.00
67822;BMP180;54434;50.096;20.082;2023-02-13T10:23:32;100702.40;;;7.00
67822;BMP180;54434;50.096;20.082;2023-02-13T10:26:19;100702.80;;;7.10
67822;BMP180;54434;50.096;20.082;2023-02-13T10:29:03;100694.60;;;7.20
67822;BMP180;54434;50.096;20.082;2023-02-13T10:32:03;100693.20;;;7.30
67822;BMP180;54434;50.096;20.082;2023-02-13T10:34:46;100696.40;;;7.30
67822;BMP180;54434;50.096;20.082;2023-02-13T10:37:25;100685.40;;;7.38
67822;BMP180;54434;50.096;20.082;2023-02-13T10:40:04;100680.60;;;7.40
67822;BMP180;54434;50.096;20.082;2023-02-13T10:42:48;100678.60;;;7.40
67822;BMP180;54434;50.096;20.082;2023-02-13T10:45:58;100664.00;;;7.30
67822;BMP180;54434;50.096;20.082;2023-02-13T10:49:29;100657.80;;;7.30
67822;BMP180;54434;50.096;20.082;2023-02-13T10:52:24;100665.60;;;7.40
67822;BMP180;54434;50.096;20.082;2023-02-13T10:55:30;100665.80;;;7.40
67822;BMP180;54434;50.096;20.082;2023-02-13T10:58:18;100661.40;;;7.40
67822;BMP180;54434;50.096;20.082;2023-02-13T11:01:04;100661.40;;;7.40
67822;BMP180;54434;50.096;20.082;2023-02-13T11:03:41;100659.40;;;7.40
67822;BMP180;54434;50.096;20.082;2023-02-13T11:06:21;100656.00;;;7.40
67822;BMP180;54434;50.096;20.082;2023-02-13T11:08:58;100653.20;;;7.40
67822;BMP180;54434;50.096;20.082;2023-02-13T11:11:37;100649.40;;;7.40
67822;BMP180;54434;50.096;20.082;2023-02-13T11:14:18;100651.00;;;7.42
67822;BMP180;54434;50.096;20.082;2023-02-13T11:17:00;100650.60;;;7.50
67822;BMP180;54434;50.096;20.082;2023-02-13T11:19:47;100653.20;;;7.40
67822;BMP180;54434;50.096;20.082;2023-02-13T11:22:35;100655.20;;;7.30
67822;BMP180;54434;50.096;20.082;2023-02-13T11:25:25;100660.80;;;7.20
67822;BMP180;54434;50.096;20.082;2023-02-13T11:28:18;100660.00;;;7.20
67822;BMP180;54434;50.096;20.082;2023-02-13T11:31:13;100659.80;;;7.20
67822;BMP180;54434;50.096;20.082;2023-02-13T11:33:50;100661.20;;;7.20
67822;BMP180;54434;50.096;20.082;2023-02-13T11:36:32;100666.00;;;7.20
67822;BMP180;54434;50.096;20.082;2023-02-13T11:39:24;100664.60;;;7.10
67822;BMP180;54434;50.096;20.082;2023-02-13T11:42:01;100666.40;;;7.10
67822;BMP180;54434;50.096;20.082;2023-02-13T11:44:38;100666.00;;;7.04
67822;BMP180;54434;50.096;20.082;2023-02-13T11:47:16;100667.40;;;7.00
67822;BMP180;54434;50.096;20.082;2023-02-13T11:50:06;100665.20;;;7.10
67822;BMP180;54434;50.096;20.082;2023-02-13T11:53:03;100665.00;;;7.10
67822;BMP180;54434;50.096;20.082;2023-02-13T11:55:43;100661.40;;;7.10
67822;BMP180;54434;50.096;20.082;2023-02-13T11:58:29;100658.00;;;7.10
67822;BMP180;54434;50.096;20.082;2023-02-13T12:01:29;100655.40;;;7.00
67822;BMP180;54434;50.096;20.082;2023-02-13T12:04:15;100650.00;;;6.90
67822;BMP180;54434;50.096;20.082;2023-02-13T12:07:13;100651.80;;;6.88
67822;BMP180;54434;50.096;20.082;2023-02-13T12:09:56;100652.40;;;6.80
67822;BMP180;54434;50.096;20.082;2023-02-13T12:12:44;100640.40;;;6.70
67822;BMP180;54434;50.096;20.082;2023-02-13T12:15:25;100633.80;;;6.62
67822;BMP180;54434;50.096;20.082;2023-02-13T12:18:20;100631.20;;;6.60
67822;BMP180;54434;50.096;20.082;2023-02-13T12:21:21;100632.80;;;6.54
67822;BMP180;54434;50.096;20.082;2023-02-13T12:24:19;100627.00;;;6.52
67822;BMP180;54434;50.096;20.082;2023-02-13T12:27:11;100624.00;;;6.58
67822;BMP180;54434;50.096;20.082;2023-02-13T12:30:31;100624.60;;;6.60
67822;BMP180;54434;50.096;20.082;2023-02-13T12:33:34;100622.80;;;6.60
67822;BMP180;54434;50.096;20.082;2023-02-13T12:36:22;100623.40;;;6.60
67822;BMP180;54434;50.096;20.082;2023-02-13T12:39:28;100613.40;;;6.60
67822;BMP180;54434;50.096;20.082;2023-02-13T12:42:27;100611.00;;;6.60
67822;BMP180;54434;50.096;20.082;2023-02-13T12:45:26;100610.40;;;6.60
67822;BMP180;54434;50.096;20.082;2023-02-13T12:48:31;100613.20;;;6.54
67822;BMP180;54434;50.096;20.082;2023-02-13T12:51:35;100616.60;;;6.48
67822;BMP180;54434;50.096;20.082;2023-02-13T12:54:38;100614.00;;;6.40
67822;BMP180;54434;50.096;20.082;2023-02-13T12:57:37;100615.20;;;6.36
67822;BMP180;54434;50.096;20.082;2023-02-13T13:00:42;100618.40;;;6.30
67822;BMP180;54434;50.096;20.082;2023-02-13T13:03:46;100615.60;;;6.20
67822;BMP180;54434;50.096;20.082;2023-02-13T13:07:00;100618.80;;;6.10
67822;BMP180;54434;50.096;20.082;2023-02-13T13:10:01;100615.00;;;6.00
67822;BMP180;54434;50.096;20.082;2023-02-13T13:12:51;100616.40;;;5.98
67822;BMP180;54434;50.096;20.082;2023-02-13T13:15:41;100609.60;;;5.90
67822;BMP180;54434;50.096;20.082;2023-02-13T13:18:44;100609.60;;;5.80
67822;BMP180;54434;50.096;20.082;2023-02-13T13:21:37;100608.60;;;5.80
67822;BMP180;54434;50.096;20.082;2023-02-13T13:24:36;100609.00;;;5.80
67822;BMP180;54434;50.096;20.082;2023-02-13T13:27:23;100609.40;;;5.80
67822;BMP180;54434;50.096;20.082;2023-02-13T13:30:03;100608.60;;;5.72
67822;BMP180;54434;50.096;20.082;2023-02-13T13:32:42;100605.20;;;5.70
67822;BMP180;54434;50.096;20.082;2023-02-13T13:35:22;100604.40;;;5.70
67822;BMP180;54434;50.096;20.082;2023-02-13T13:38:10;100606.60;;;5.70
67822;BMP180;54434;50.096;20.082;2023-02-13T13:40:55;100607.20;;;5.70
67822;BMP180;54434;50.096;20.082;2023-02-13T13:44:06;100607.20;;;5.70
67822;BMP180;54434;50.096;20.082;2023-02-13T13:46:59;100604.00;;;5.70
67822;BMP180;54434;50.096;20.082;2023-02-13T13:49:50;100609.00;;;5.66
67822;BMP180;54434;50.096;20.082;2023-02-13T13:52:30;100607.80;;;5.66
67822;BMP180;54434;50.096;20.082;2023-02-13T13:56:05;100604.60;;;5.64
67822;BMP180;54434;50.096;20.082;2023-02-13T13:58:46;100604.80;;;5.64
67822;BMP180;54434;50.096;20.082;2023-02-13T14:01:31;100596.40;;;5.70
67822;BMP180;54434;50.096;20.082;2023-02-13T14:04:59;100591.60;;;5.70
67822;BMP180;54434;50.096;20.082;2023-02-13T14:07:40;100591.00;;;5.80
67822;BMP180;54434;50.096;20.082;2023-02-13T14:11:28;100587.60;;;5.88
67822;BMP180;54434;50.096;20.082;2023-02-13T14:14:48;100589.40;;;5.90
67822;BMP180;54434;50.096;20.082;2023-02-13T14:18:01;100579.80;;;5.86
67822;BMP180;54434;50.096;20.082;2023-02-13T14:20:51;100569.00;;;5.76
67822;BMP180;54434;50.096;20.082;2023-02-13T14:23:50;100564.40;;;5.70
67822;BMP180;54434;50.096;20.082;2023-02-13T14:26:48;100561.20;;;5.70
67822;BMP180;54434;50.096;20.082;2023-02-13T14:29:38;100561.60;;;5.70
67822;BMP180;54434;50.096;20.082;2023-02-13T14:32:29;100557.20;;;5.70
67822;BMP180;54434;50.096;20.082;2023-02-13T14:35:22;100556.60;;;5.68
67822;BMP180;54434;50.096;20.082;2023-02-13T14:38:02;100551.20;;;5.60
67822;BMP180;54434;50.096;20.082;2023-02-13T14:40:55;100544.20;;;5.60
67822;BMP180;54434;50.096;20.082;2023-02-13T14:43:41;100537.80;;;5.60
67822;BMP180;54434;50.096;20.082;2023-02-13T14:46:33;100535.00;;;5.58
67822;BMP180;54434;50.096;20.082;2023-02-13T14:49:20;100528.00;;;5.54
67822;BMP180;54434;50.096;20.082;2023-02-13T14:52:03;100531.80;;;5.50
67822;BMP180;54434;50.096;20.082;2023-02-13T14:54:47;100535.40;;;5.48
67822;BMP180;54434;50.096;20.082;2023-02-13T14:57:30;100532.80;;;5.40
67822;BMP180;54434;50.096;20.082;2023-02-13T15:00:25;100525.60;;;5.38
67822;BMP180;54434;50.096;20.082;2023-02-13T15:03:24;100524.60;;;5.30
67822;BMP180;54434;50.096;20.082;2023-02-13T15:06:13;100518.80;;;5.30
67822;BMP180;54434;50.096;20.082;2023-02-13T15:08:53;100511.40;;;5.30
67822;BMP180;54434;50.096;20.082;2023-02-13T15:11:41;100513.40;;;5.28
67822;BMP180;54434;50.096;20.082;2023-02-13T15:14:31;100508.60;;;5.20
67822;BMP180;54434;50.096;20.082;2023-02-13T15:17:16;100511.60;;;5.20
67822;BMP180;54434;50.096;20.082;2023-02-13T15:19:58;100514.60;;;5.22
67822;BMP180;54434;50.096;20.082;2023-02-13T15:22:40;100514.60;;;5.20
67822;BMP180;54434;50.096;20.082;2023-02-13T15:25:32;100512.20;;;5.20
67822;BMP180;54434;50.096;20.082;2023-02-13T15:28:20;100513.40;;;5.20
67822;BMP180;54434;50.096;20.082;2023-02-13T15:31:03;100518.00;;;5.12
67822;BMP180;54434;50.096;20.082;2023-02-13T15:33:50;100525.80;;;5.10
67822;BMP180;54434;50.096;20.082;2023-02-13T15:36:38;100530.00;;;5.10
67822;BMP180;54434;50.096;20.082;2023-02-13T15:39:24;100535.60;;;5.10
67822;BMP180;54434;50.096;20.082;2023-02-13T15:42:03;100533.80;;;5.00
67822;BMP180;54434;50.096;20.082;2023-02-13T15:44:42;100537.60;;;5.00